createdAt,value
2018-09-23T00:01:29.597Z,18.70
2018-09-23T00:03:58.051Z,26.13
2018-09-23T00:06:26.588Z,22.00
2018-09-23T00:08:55.020Z,25.03
2018-09-23T00:11:23.436Z,21.53
2018-09-23T00:13:51.853Z,32.47
2018-09-23T00:16:20.280Z,26.60
2018-09-23T00:18:48.700Z,28.23
2018-09-23T00:21:17.112Z,28.80
2018-09-23T00:23:45.536Z,24.60
2018-09-23T00:26:14.201Z,29.27
2018-09-23T00:28:42.603Z,21.07
2018-09-23T00:31:10.977Z,18.20
2018-09-23T00:33:39.426Z,19.43
2018-09-23T00:36:07.857Z,25.80
2018-09-23T00:38:36.244Z,26.17
2018-09-23T00:41:04.969Z,28.70
2018-09-23T00:43:33.380Z,24.83
2018-09-23T00:46:01.835Z,23.40
2018-09-23T00:48:30.241Z,29.77
2018-09-23T00:50:58.631Z,31.70
2018-09-23T00:53:27.029Z,31.73
2018-09-23T00:55:55.435Z,27.33
2018-09-23T00:58:23.831Z,32.13
2018-09-23T01:00:52.276Z,34.43
2018-09-23T01:03:20.692Z,42.83
2018-09-23T01:05:49.344Z,32.17
2018-09-23T01:08:17.839Z,32.23
2018-09-23T01:10:46.317Z,31.60
2018-09-23T01:13:14.913Z,31.50
2018-09-23T01:15:43.300Z,34.97
2018-09-23T01:18:11.700Z,30.27
2018-09-23T01:20:40.158Z,34.20
2018-09-23T01:23:08.557Z,36.80
2018-09-23T01:25:36.940Z,33.53
2018-09-23T01:28:05.545Z,35.07
2018-09-23T01:30:33.945Z,36.07
2018-09-23T01:33:02.340Z,35.70
2018-09-23T01:35:30.767Z,37.23
2018-09-23T01:37:59.141Z,37.90
2018-09-23T01:40:27.628Z,35.60
2018-09-23T01:42:56.264Z,38.83
2018-09-23T01:45:24.652Z,48.80
2018-09-23T01:47:53.044Z,39.27
2018-09-23T01:50:21.460Z,46.40
2018-09-23T01:52:49.934Z,43.00
2018-09-23T01:55:18.364Z,44.43
2018-09-23T01:57:46.731Z,42.23
2018-09-23T02:00:15.320Z,44.60
2018-09-23T02:02:43.701Z,47.47
2018-09-23T02:05:12.132Z,46.33
2018-09-23T02:07:40.589Z,40.80
2018-09-23T02:10:09.110Z,40.43
2018-09-23T02:12:37.585Z,43.57
2018-09-23T02:15:06.425Z,41.17
2018-09-23T02:17:34.843Z,41.43
2018-09-23T02:20:03.269Z,44.23
2018-09-23T02:22:31.706Z,46.57
2018-09-23T02:25:00.119Z,34.73
2018-09-23T02:27:28.702Z,41.33
2018-09-23T02:29:57.085Z,38.93
2018-09-23T02:32:25.605Z,40.47
2018-09-23T02:34:54.016Z,35.70
2018-09-23T02:37:22.416Z,43.23
2018-09-23T02:39:50.789Z,38.37
2018-09-23T02:42:19.293Z,38.47
2018-09-23T02:44:48.041Z,37.50
2018-09-23T02:47:16.468Z,34.13
2018-09-23T02:49:44.861Z,37.03
2018-09-23T02:52:13.260Z,34.03
2018-09-23T02:54:41.846Z,37.20
2018-09-23T02:57:10.257Z,35.20
2018-09-23T02:59:38.649Z,37.90
2018-09-23T03:02:07.068Z,35.10
2018-09-23T03:04:35.793Z,34.13
2018-09-23T03:07:04.204Z,32.17
2018-09-23T03:09:32.648Z,40.03
2018-09-23T03:12:01.028Z,43.77
2018-09-23T03:14:29.530Z,36.27
2018-09-23T03:16:57.922Z,34.67
2018-09-23T03:19:26.368Z,36.10
2018-09-23T03:21:54.880Z,44.23
2018-09-23T03:24:23.650Z,40.73
2018-09-23T03:26:52.014Z,38.27
2018-09-23T03:29:20.401Z,41.50
2018-09-23T03:31:48.797Z,41.73
2018-09-23T03:34:17.188Z,46.90
2018-09-23T03:36:45.577Z,40.83
2018-09-23T03:39:13.982Z,46.40
2018-09-23T03:41:42.386Z,47.07
2018-09-23T03:44:10.827Z,50.40
2018-09-23T03:46:39.468Z,49.13
2018-09-23T03:49:07.909Z,37.97
2018-09-23T03:51:36.289Z,43.70
2018-09-23T03:54:04.708Z,42.70
2018-09-23T03:56:33.092Z,41.50
2018-09-23T03:59:01.499Z,39.03
2018-09-23T04:01:29.897Z,33.43
2018-09-23T04:03:58.609Z,33.43
2018-09-23T04:06:27.003Z,23.97
2018-09-23T04:08:55.393Z,26.90
2018-09-23T04:11:24.060Z,26.43
2018-09-23T04:13:52.618Z,24.20
2018-09-23T04:16:21.073Z,23.93
2018-09-23T04:18:49.582Z,18.90
2018-09-23T04:21:17.992Z,19.30
2018-09-23T04:23:46.380Z,21.30
2018-09-23T04:26:14.776Z,18.83
2018-09-23T04:28:43.172Z,19.80
2018-09-23T04:31:11.557Z,20.07
2018-09-23T04:33:39.952Z,20.77
2018-09-23T04:36:08.341Z,16.37
2018-09-23T04:38:36.737Z,21.40
2018-09-23T04:41:05.112Z,18.17
2018-09-23T04:43:33.475Z,21.07
2018-09-23T04:46:01.893Z,19.57
2018-09-23T04:48:30.413Z,17.17
2018-09-23T04:50:59.088Z,19.50
2018-09-23T04:53:27.796Z,14.67
2018-09-23T04:55:56.192Z,16.00
2018-09-23T04:58:24.587Z,16.87
2018-09-23T05:00:52.981Z,17.97
2018-09-23T05:03:21.389Z,21.00
2018-09-23T05:05:49.793Z,21.43
2018-09-23T05:08:18.232Z,17.20
2018-09-23T05:10:46.664Z,16.07
2018-09-23T05:13:15.139Z,29.27
2018-09-23T05:15:43.533Z,18.97
2018-09-23T05:18:11.909Z,20.13
2018-09-23T05:20:40.313Z,18.80
2018-09-23T05:23:08.689Z,23.23
2018-09-23T05:25:37.209Z,15.50
2018-09-23T05:28:05.780Z,18.33
2018-09-23T05:30:34.180Z,20.20
2018-09-23T05:33:02.792Z,15.97
2018-09-23T05:35:31.281Z,19.87
2018-09-23T05:37:59.697Z,20.30
2018-09-23T05:40:28.196Z,20.80
2018-09-23T05:42:58.046Z,19.60
2018-09-23T05:45:26.486Z,20.63
2018-09-23T05:47:54.880Z,19.53
2018-09-23T05:50:23.314Z,19.50
2018-09-23T05:52:51.735Z,22.30
2018-09-23T05:55:20.176Z,21.63
2018-09-23T05:57:49.391Z,20.83
2018-09-23T06:00:18.473Z,15.67
2018-09-23T06:02:46.961Z,17.53
2018-09-23T06:05:15.577Z,17.80
2018-09-23T06:07:43.972Z,20.57
2018-09-23T06:10:12.364Z,20.70
2018-09-23T06:12:40.788Z,22.73
2018-09-23T06:15:09.181Z,20.60
2018-09-23T06:17:37.789Z,20.77
2018-09-23T06:20:06.292Z,17.53
2018-09-23T06:22:34.674Z,26.60
2018-09-23T06:25:03.291Z,19.27
2018-09-23T06:27:31.655Z,19.83
2018-09-23T06:30:00.120Z,16.03
2018-09-23T06:32:29.049Z,17.73
2018-09-23T06:34:57.610Z,18.60
2018-09-23T06:37:25.994Z,13.97
2018-09-23T06:39:54.519Z,15.00
2018-09-23T06:42:23.056Z,14.43
2018-09-23T06:44:51.440Z,18.43
2018-09-23T06:47:19.845Z,24.60
2018-09-23T06:49:48.293Z,17.67
2018-09-23T06:52:16.705Z,21.03
2018-09-23T06:54:45.095Z,21.50
2018-09-23T06:57:13.826Z,19.83
2018-09-23T06:59:42.197Z,15.97
2018-09-23T07:02:10.592Z,14.33
2018-09-23T07:04:39.103Z,32.57
2018-09-23T07:07:07.696Z,24.93
2018-09-23T07:09:36.107Z,13.67
2018-09-23T07:12:04.622Z,15.83
2018-09-23T07:14:33.355Z,13.27
2018-09-23T07:17:01.761Z,15.40
2018-09-23T07:19:30.189Z,10.90
2018-09-23T07:21:58.675Z,11.27
2018-09-23T07:24:27.148Z,9.70
2018-09-23T07:26:55.728Z,13.13
2018-09-23T07:29:24.125Z,11.17
2018-09-23T07:31:52.800Z,10.33
2018-09-23T07:34:21.447Z,11.33
2018-09-23T07:36:49.903Z,11.73
2018-09-23T07:39:18.306Z,10.73
2018-09-23T07:41:46.711Z,13.23
2018-09-23T07:44:15.100Z,10.80
2018-09-23T07:46:43.506Z,12.53
2018-09-23T07:49:11.928Z,9.47
2018-09-23T07:51:40.353Z,12.60
2018-09-23T07:54:08.920Z,12.17
2018-09-23T07:56:37.364Z,9.93
2018-09-23T07:59:06.173Z,10.63
2018-09-23T08:01:34.604Z,14.13
2018-09-23T08:04:03.256Z,12.07
2018-09-23T08:06:31.688Z,11.60
2018-09-23T08:09:00.094Z,9.30
2018-09-23T08:11:28.682Z,11.07
2018-09-23T08:13:57.307Z,10.80
2018-09-23T08:16:25.469Z,8.50
2018-09-23T08:18:53.940Z,16.23
2018-09-23T08:21:22.416Z,9.87
2018-09-23T08:23:50.809Z,9.23
2018-09-23T08:26:19.305Z,8.53
2018-09-23T08:28:47.705Z,9.23
2018-09-23T08:31:16.124Z,9.60
2018-09-23T08:33:44.638Z,8.37
2018-09-23T08:36:13.053Z,10.10
2018-09-23T08:38:41.460Z,13.23
2018-09-23T08:41:09.849Z,11.57
2018-09-23T08:43:38.233Z,9.30
2018-09-23T08:46:06.685Z,15.03
2018-09-23T08:48:35.090Z,9.37
2018-09-23T08:51:03.845Z,10.83
2018-09-23T08:53:32.277Z,13.70
2018-09-23T08:56:00.767Z,12.13
2018-09-23T08:58:29.200Z,15.90
2018-09-23T09:00:57.685Z,13.70
2018-09-23T09:03:26.072Z,11.90
2018-09-23T09:05:54.514Z,10.43
2018-09-23T09:08:22.881Z,13.33
2018-09-23T09:10:51.448Z,12.10
2018-09-23T09:13:19.856Z,11.47
2018-09-23T09:15:48.629Z,11.70
2018-09-23T09:18:17.281Z,14.73
2018-09-23T09:20:45.844Z,13.07
2018-09-23T09:23:14.253Z,13.93
2018-09-23T09:25:42.644Z,18.83
2018-09-23T09:28:11.149Z,20.60
2018-09-23T09:30:39.552Z,26.07
2018-09-23T09:33:07.969Z,25.93
2018-09-23T09:35:36.558Z,24.50
2018-09-23T09:38:04.984Z,26.80
2018-09-23T09:40:33.384Z,27.47
2018-09-23T09:43:01.800Z,34.50
2018-09-23T09:45:30.202Z,30.80
2018-09-23T09:47:58.714Z,32.47
2018-09-23T09:50:27.122Z,28.37
2018-09-23T09:52:55.528Z,33.67
2018-09-23T09:55:24.093Z,31.60
2018-09-23T09:57:52.609Z,31.53
2018-09-23T10:00:26.524Z,28.93
2018-09-23T10:02:54.991Z,27.33
2018-09-23T10:05:23.461Z,26.47
2018-09-23T10:07:52.075Z,30.30
2018-09-23T10:10:20.536Z,25.43
2018-09-23T10:12:49.001Z,27.37
2018-09-23T10:15:17.493Z,23.57
2018-09-23T10:17:46.307Z,25.43
2018-09-23T10:20:14.717Z,23.40
2018-09-23T10:22:43.298Z,23.33
2018-09-23T10:25:11.841Z,25.10
2018-09-23T10:27:40.323Z,22.40
2018-09-23T10:30:09.765Z,27.50
2018-09-23T10:32:38.293Z,23.33
2018-09-23T10:35:07.035Z,23.80
2018-09-23T10:37:35.580Z,22.43
2018-09-23T10:40:04.156Z,26.33
2018-09-23T10:42:32.582Z,19.87
2018-09-23T10:45:01.037Z,33.80
2018-09-23T10:47:29.449Z,21.27
2018-09-23T10:49:57.936Z,23.60
2018-09-23T10:52:26.373Z,26.40
2018-09-23T10:54:55.148Z,19.60
2018-09-23T10:57:23.562Z,23.87
2018-09-23T10:59:51.996Z,23.13
2018-09-23T11:02:20.476Z,28.00
2018-09-23T11:04:49.043Z,30.43
2018-09-23T11:07:17.550Z,34.93
2018-09-23T11:09:45.972Z,41.70
2018-09-23T11:12:14.465Z,41.07
2018-09-23T11:14:42.906Z,32.77
2018-09-23T11:17:11.343Z,32.70
2018-09-23T11:19:39.758Z,29.10
2018-09-23T11:22:08.253Z,28.70
2018-09-23T11:24:36.741Z,24.50
2018-09-23T11:27:05.270Z,22.60
2018-09-23T11:29:33.677Z,22.77
2018-09-23T11:32:02.197Z,18.87
2018-09-23T11:34:30.769Z,19.50
2018-09-23T11:36:59.311Z,14.63
2018-09-23T11:39:27.755Z,18.07
2018-09-23T11:41:56.191Z,17.50
2018-09-23T11:44:24.862Z,15.63
2018-09-23T11:46:53.239Z,14.40
2018-09-23T11:49:21.789Z,14.30
2018-09-23T11:51:50.220Z,12.87
2018-09-23T11:54:18.602Z,13.67
2018-09-23T11:56:47.003Z,13.80
2018-09-23T11:59:16.501Z,13.93
2018-09-23T12:01:44.946Z,11.40
2018-09-23T12:04:13.374Z,13.23
2018-09-23T12:06:41.824Z,9.83
2018-09-23T12:09:12.229Z,10.60
2018-09-23T12:11:40.761Z,11.60
2018-09-23T12:14:09.892Z,12.27
2018-09-23T12:16:38.305Z,14.50
2018-09-23T12:19:06.953Z,12.87
2018-09-23T12:21:35.366Z,14.83
2018-09-23T12:24:03.912Z,13.67
2018-09-23T12:26:32.332Z,15.60
2018-09-23T12:29:00.769Z,15.60
2018-09-23T12:31:29.211Z,16.80
2018-09-23T12:33:57.720Z,17.07
2018-09-23T12:36:26.137Z,19.27
2018-09-23T12:38:54.549Z,18.73
2018-09-23T12:41:23.000Z,20.97
2018-09-23T12:43:51.396Z,17.70
2018-09-23T12:46:19.841Z,21.23
2018-09-23T12:48:48.280Z,20.13
2018-09-23T12:51:16.821Z,17.07
2018-09-23T12:53:45.277Z,20.17
2018-09-23T12:56:13.733Z,20.00
2018-09-23T12:58:42.300Z,16.83
2018-09-23T13:01:10.725Z,18.20
2018-09-23T13:03:39.252Z,22.27
2018-09-23T13:06:07.670Z,18.47
2018-09-23T13:08:36.114Z,18.80
2018-09-23T13:11:04.609Z,21.50
2018-09-23T13:13:33.005Z,22.33
2018-09-23T13:16:01.434Z,20.40
2018-09-23T13:18:30.213Z,21.10
2018-09-23T13:20:58.603Z,23.20
2018-09-23T13:23:27.017Z,19.07
2018-09-23T13:25:55.471Z,18.10
2018-09-23T13:28:23.951Z,17.33
2018-09-23T13:30:52.408Z,16.63
2018-09-23T13:33:20.921Z,16.70
2018-09-23T13:35:49.453Z,19.07
2018-09-23T13:38:18.050Z,18.20
2018-09-23T13:40:46.487Z,15.47
2018-09-23T13:43:15.026Z,16.77
2018-09-23T13:45:43.584Z,12.20
2018-09-23T13:48:12.233Z,11.00
2018-09-23T13:50:41.033Z,9.80
2018-09-23T13:53:09.464Z,12.00
2018-09-23T13:55:38.033Z,11.40
2018-09-23T13:58:06.845Z,7.47
2018-09-23T14:00:35.357Z,7.60
2018-09-23T14:03:03.920Z,12.40
2018-09-23T14:05:32.514Z,13.00
2018-09-23T14:08:01.062Z,6.93
2018-09-23T14:10:29.536Z,7.00
2018-09-23T14:12:58.288Z,8.07
2018-09-23T14:15:26.718Z,8.20
2018-09-23T14:17:55.141Z,11.33
2018-09-23T14:20:23.666Z,9.87
2018-09-23T14:22:52.086Z,11.00
2018-09-23T14:25:20.521Z,13.50
2018-09-23T14:27:49.042Z,14.33
2018-09-23T14:30:17.465Z,13.33
2018-09-23T14:32:45.914Z,13.77
2018-09-23T14:35:14.404Z,14.03
2018-09-23T14:37:42.988Z,14.77
2018-09-23T14:40:11.781Z,16.57
2018-09-23T14:42:40.214Z,14.87
2018-09-23T14:45:08.660Z,15.23
2018-09-23T14:47:37.357Z,15.53
2018-09-23T14:50:06.778Z,14.00
2018-09-23T14:52:35.302Z,13.73
2018-09-23T14:55:03.797Z,15.10
2018-09-23T14:57:32.260Z,15.90
2018-09-23T15:00:03.203Z,13.97
2018-09-23T15:02:29.200Z,15.53
2018-09-23T15:04:57.704Z,11.80
2018-09-23T15:07:26.166Z,13.73
2018-09-23T15:09:54.585Z,10.20
2018-09-23T15:12:23.017Z,11.60
2018-09-23T15:14:51.716Z,11.50
2018-09-23T15:17:20.141Z,10.90
2018-09-23T15:19:48.560Z,10.93
2018-09-23T15:24:56.204Z,12.83
2018-09-23T15:27:24.628Z,13.80
2018-09-23T15:29:53.160Z,12.47
2018-09-23T15:32:21.828Z,12.73
2018-09-23T15:34:50.244Z,13.10
2018-09-23T15:37:18.885Z,12.73
2018-09-23T15:39:47.297Z,14.57
2018-09-23T15:42:15.837Z,13.50
2018-09-23T15:44:44.264Z,18.53
2018-09-23T15:47:12.750Z,13.40
2018-09-23T15:49:41.239Z,16.00
2018-09-23T15:52:10.039Z,16.47
2018-09-23T15:54:38.421Z,16.83
2018-09-23T15:57:07.064Z,19.13
2018-09-23T15:59:35.508Z,16.40
2018-09-23T16:02:03.954Z,14.60
2018-09-23T16:04:32.528Z,21.33
2018-09-23T16:07:00.920Z,18.03
2018-09-23T16:09:29.439Z,17.67
2018-09-23T16:11:57.911Z,12.53
2018-09-23T16:14:26.380Z,12.80
2018-09-23T16:16:54.967Z,13.40
2018-09-23T16:19:23.412Z,9.93
2018-09-23T16:21:51.793Z,9.67
2018-09-23T16:24:20.331Z,6.10
2018-09-23T16:26:48.741Z,6.17
2018-09-23T16:29:17.145Z,9.33
2018-09-23T16:31:45.617Z,8.10
2018-09-23T16:34:14.022Z,8.03
2018-09-23T16:36:42.437Z,9.77
2018-09-23T16:39:11.693Z,7.93
2018-09-23T16:41:40.170Z,6.90
2018-09-23T16:44:09.112Z,11.03
2018-09-23T16:46:37.524Z,8.80
2018-09-23T16:49:05.924Z,9.33
2018-09-23T16:51:34.599Z,11.10
2018-09-23T16:54:03.035Z,7.37
2018-09-23T16:56:31.461Z,9.13
2018-09-23T16:59:00.058Z,10.50
2018-09-23T17:01:28.458Z,9.40
2018-09-23T17:03:56.881Z,6.73
2018-09-23T17:06:25.325Z,10.27
2018-09-23T17:08:53.759Z,12.50
2018-09-23T17:11:28.607Z,12.20
2018-09-23T17:13:57.055Z,11.90
2018-09-23T17:16:25.597Z,12.00
2018-09-23T17:18:54.106Z,10.90
2018-09-23T17:21:23.051Z,13.87
2018-09-23T17:23:51.470Z,12.97
2018-09-23T17:26:20.012Z,11.43
2018-09-23T17:28:48.580Z,8.47
2018-09-23T17:31:16.985Z,10.77
2018-09-23T17:33:45.424Z,11.07
2018-09-23T17:36:13.818Z,18.17
2018-09-23T17:38:42.255Z,10.33
2018-09-23T17:41:10.990Z,10.40
2018-09-23T17:43:39.574Z,12.80
2018-09-23T17:46:08.048Z,11.73
2018-09-23T17:48:36.506Z,13.53
2018-09-23T17:51:04.913Z,10.20
2018-09-23T17:53:33.324Z,10.03
2018-09-23T17:56:01.802Z,10.30
2018-09-23T17:58:30.245Z,10.83
2018-09-23T18:00:58.693Z,9.77
2018-09-23T18:03:27.146Z,10.20
2018-09-23T18:05:55.581Z,8.60
2018-09-23T18:08:23.990Z,10.97
2018-09-23T18:10:52.672Z,13.50
2018-09-23T18:13:21.101Z,10.50
2018-09-23T18:15:50.694Z,6.70
2018-09-23T18:18:20.111Z,6.27
2018-09-23T18:20:48.521Z,5.90
2018-09-23T18:23:16.897Z,6.03
2018-09-23T18:25:45.323Z,5.17
2018-09-23T18:28:13.813Z,9.67
2018-09-23T18:30:42.333Z,6.57
2018-09-23T18:33:10.824Z,11.27
2018-09-23T18:35:39.271Z,6.30
2018-09-23T18:38:07.706Z,4.70
2018-09-23T18:40:36.138Z,3.37
2018-09-23T18:43:04.545Z,4.40
2018-09-23T18:45:33.006Z,3.77
2018-09-23T18:48:01.433Z,3.70
2018-09-23T18:50:29.981Z,6.70
2018-09-23T18:53:03.717Z,3.37
2018-09-23T18:55:38.573Z,5.63
2018-09-23T18:58:07.269Z,4.00
2018-09-23T19:00:35.858Z,7.37
2018-09-23T19:03:04.283Z,3.23
2018-09-23T19:05:32.909Z,3.60
2018-09-23T19:08:01.811Z,5.20
2018-09-23T19:10:31.369Z,5.80
2018-09-23T19:13:05.157Z,4.67
2018-09-23T19:15:34.293Z,4.27
2018-09-23T19:18:03.348Z,6.10
2018-09-23T19:20:31.754Z,3.40
2018-09-23T19:23:05.538Z,7.00
2018-09-23T19:25:34.277Z,8.87
2018-09-23T19:28:02.982Z,5.10
2018-09-23T19:30:31.889Z,6.70
2018-09-23T19:33:00.301Z,8.73
2018-09-23T19:35:29.246Z,7.70
2018-09-23T19:37:57.860Z,8.77
2018-09-23T19:40:26.357Z,6.77
2018-09-23T19:42:54.897Z,5.80
2018-09-23T19:45:23.276Z,5.57
2018-09-23T19:47:51.689Z,11.63
2018-09-23T19:50:20.168Z,6.20
2018-09-23T19:52:49.662Z,5.83
2018-09-23T19:55:18.093Z,6.83
2018-09-23T19:57:46.661Z,8.03
2018-09-23T20:00:15.132Z,10.40
2018-09-23T20:02:43.556Z,10.60
2018-09-23T20:05:12.197Z,8.83
2018-09-23T20:07:40.663Z,10.30
2018-09-23T20:10:09.082Z,5.50
2018-09-23T20:12:37.576Z,9.77
2018-09-23T20:15:10.529Z,6.60
2018-09-23T20:17:39.062Z,6.93
2018-09-23T20:20:07.481Z,10.67
2018-09-23T20:22:36.052Z,8.03
2018-09-23T20:25:05.017Z,8.03
2018-09-23T20:27:33.408Z,8.17
2018-09-23T20:30:01.917Z,8.60
2018-09-23T20:32:30.502Z,8.17
2018-09-23T20:34:58.950Z,13.13
2018-09-23T20:37:27.457Z,14.37
2018-09-23T20:39:55.905Z,9.80
2018-09-23T20:42:24.340Z,11.23
2018-09-23T20:44:52.809Z,11.00
2018-09-23T20:47:21.165Z,8.80
2018-09-23T20:49:49.948Z,17.27
2018-09-23T20:52:18.356Z,11.20
2018-09-23T20:54:46.824Z,10.63
2018-09-23T20:57:15.624Z,10.67
2018-09-23T20:59:44.073Z,8.70
2018-09-23T21:02:12.493Z,10.43
2018-09-23T21:04:42.185Z,11.10
2018-09-23T21:07:10.670Z,11.73
2018-09-23T21:09:39.201Z,13.43
2018-09-23T21:12:07.590Z,9.60
2018-09-23T21:14:35.961Z,17.77
2018-09-23T21:17:04.756Z,10.27
2018-09-23T21:19:33.178Z,11.63
2018-09-23T21:22:01.560Z,13.00
2018-09-23T21:24:29.973Z,14.80
2018-09-23T21:26:58.390Z,18.20
2018-09-23T21:29:26.806Z,12.27
2018-09-23T21:31:55.217Z,15.20
2018-09-23T21:34:23.825Z,14.20
2018-09-23T21:36:52.302Z,11.37
2018-09-23T21:39:20.686Z,12.83
2018-09-23T21:41:49.181Z,15.30
2018-09-23T21:44:17.791Z,14.33
2018-09-23T21:46:46.187Z,14.83
2018-09-23T21:49:14.580Z,16.30
2018-09-23T21:51:43.112Z,21.63
2018-09-23T21:54:11.720Z,17.33
2018-09-23T21:56:40.099Z,16.63
2018-09-23T21:59:08.540Z,15.47
2018-09-23T22:01:36.924Z,17.07
2018-09-23T22:04:05.341Z,15.73
2018-09-23T22:06:33.772Z,13.70
2018-09-23T22:09:02.209Z,14.00
2018-09-23T22:11:30.585Z,13.33
2018-09-23T22:13:59.072Z,13.23
2018-09-23T22:16:27.476Z,15.17
2018-09-23T22:18:55.867Z,22.03
2018-09-23T22:21:24.482Z,13.43
2018-09-23T22:23:52.876Z,13.37
2018-09-23T22:26:21.448Z,16.03
2018-09-23T22:28:50.024Z,12.13
2018-09-23T22:31:18.419Z,12.60
2018-09-23T22:33:46.808Z,12.53
2018-09-23T22:36:15.234Z,21.27
2018-09-23T22:38:43.608Z,12.00
2018-09-23T22:41:11.997Z,10.93
2018-09-23T22:43:40.405Z,18.77
2018-09-23T22:46:08.841Z,11.60
2018-09-23T22:48:37.240Z,15.83
2018-09-23T22:51:05.704Z,13.00
2018-09-23T22:53:34.213Z,15.10
2018-09-23T22:56:02.601Z,13.70
2018-09-23T22:58:31.016Z,14.07
2018-09-23T23:00:59.425Z,22.30
2018-09-23T23:03:27.837Z,11.63
2018-09-23T23:05:56.249Z,17.30
2018-09-23T23:08:24.627Z,12.70
2018-09-23T23:10:53.005Z,15.20
2018-09-23T23:13:21.641Z,13.17
2018-09-23T23:15:50.054Z,14.63
2018-09-23T23:18:18.428Z,16.50
2018-09-23T23:20:46.872Z,12.83
2018-09-23T23:23:15.252Z,13.60
2018-09-23T23:25:43.717Z,13.27
2018-09-23T23:28:12.096Z,16.20
2018-09-23T23:30:40.492Z,17.83
2018-09-23T23:33:08.905Z,15.07
2018-09-23T23:35:37.312Z,12.70
2018-09-23T23:38:05.837Z,19.03
2018-09-23T23:40:34.248Z,14.83
2018-09-23T23:43:02.835Z,16.90
2018-09-23T23:45:31.224Z,21.90
2018-09-23T23:47:59.920Z,18.50
2018-09-23T23:50:28.341Z,15.70
2018-09-23T23:52:56.921Z,16.10
2018-09-23T23:55:25.330Z,28.00
2018-09-23T23:57:53.724Z,18.40
